Elk City, OK (73644)

3:31 PM CDT on March 26, 2017 (GMT -0500)
Clinton-Sherman | | Change Station
Active Advisory: Fire Weather Warning

Elev 1919 ft 35.34 °N, 99.20 °W | Updated 38 minutes ago

Clear
Clear
73 °F
Feels Like 73 °F
N
24
Wind Variable Wind from South
Gusts 32 mph

Today
High -- | Low -- °F
--% Chance of Precip.
Yesterday
High -- | Low -- °F
Precip. -- in
Pressure 29.66 in
Visibility 10.0 miles
Clouds Clear
Dew Point 47 °F
Humidity 39%
Rainfall 0.00 in
Snow Depth Not available.
7:32 AM 7:54 PM
Waning Crescent, 2% visible
METAR KCSM 261953Z AUTO 18021G28KT 10SM CLR 23/08 A2969 RMK AO2 PK WND 16031/1939 SLP042 T02280083
Pressure 29.66 in
Visibility 10.0 miles
Clouds Clear
Dew Point 47 °F
Humidity 39%
Rainfall 0.00 in
Snow Depth Not available.
7:32 AM 7:54 PM
Waning Crescent, 2% visible
METAR KCSM 261953Z AUTO 18021G28KT 10SM CLR 23/08 A2969 RMK AO2 PK WND 16031/1939 SLP042 T02280083

Get Your Daily Forecast Email!

Thanks for signing up!

Be on the lookout for a verification email in your inbox.

You'll start receiving severe weather alerts in your inbox..

×

10-Day Weather Forecast

Almanac

Astronomy

Mar. 26, 2017 Rise Set
Actual Time
Civil Twilight
Nautical Twilight
Astronomical Twilight
Moon
Length of Visible Light
Length of Day
Tomorrow will be .
, % of the Moon is Illuminated

Today's Extremes

State Highs State Lows

Community

WunderPhotos

Upload Photos

1,962,540 photos uploaded!

WunderBlog® & News

Nearby

Air Quality

  Air Quality AQ Index Pollutant
Not available.

Snow Depth

Station Depth Elevation

Earthquake Activity

City Distance Mag. Time & Date
Minimum magnitude displayed is 2.5.

Earthquake Activity

City Distance Mag. Time & Date
Minimum magnitude displayed is 2.5.

Coastal Water Temperatures

Place Temperature

Stations

Nearby Weather Stations

Station Location Temp. Windchill Dew Point Humidity Wind Precip. Elev Updated Type
                   

Watches & Warnings

Fire Weather Warning
Issued: 2:17 PM CDT Mar. 26, 2017 – National Weather Service

... Red flag warning remains in effect until 8 PM CDT this evening
for windy conditions... warm temperatures and low relative
humidity for southwestern Oklahoma and western North Texas...

* wind... southwest winds 20 to 25 mph with gusts over 30 mph.

* Humidity... 12 to 20 percent.

* Temperature... 76 to 84 degrees.

* Impacts... any fires that develop will likely spread rapidly.
Outdoor burning is not recommended.

Precautionary/preparedness actions...

A red flag warning means that critical fire weather conditions
are either occurring now, or will shortly. A combination of
strong winds, low relative humidity, and warm temperatures can
contribute to extreme fire behavior.